KCOE

Coeur D'alene - Pappy Boyington Field Airport

Coeur D'alene, Idaho, USA
METAR KCOE 100556Z AUTO 07006KT 10SM SCT060 BKN070 M02/M04 A3020 RMK AO2 SLP269 T10221044 10006 21033 56008 FZRANO
Observed Flight Rules
Dec-10 @ 05:56 UTC (33 minutes ago) Visual Flight Rules
Wind Visibility Clouds
70° at 6 knots 10 miles
  • Scattered at 6,000' AGL
  • Broken at 7,000' AGL
Temperatures Readings
Current -2°C / 28°F
Dewpoint -4°C / 25°F
Humidity 86%
Altimeter 30.2" Hg
Pressure 1026.9 hPa
Elevation 707
METAR KCOE 100556Z AUTO 07006KT 10SM SCT060 BKN070 M02/M04 A3020 RMK AO2 SLP269 T10221044 10006 21033 56008 FZRANO
Observed Flight Rules
Dec-10 @ 05:56 UTC
(33 minutes ago)
VFR
Wind Visibility
70° at 6 knots 10 miles
Clouds
  • Scattered at 6,000' AGL
  • Broken at 7,000' AGL
Temperature Dewpoint
-2°C / 28°F -4°C / 25°F
Humidity Altimeter Pressure
86% 30.2" Hg 1026.9 hPa